sensor_id;sensor_type;location;lat;lon;timestamp;pressure;altitude;pressure_sealevel;temperature;humidity
31771;BME280;18343;50.152;8.182;2024-02-15T00:00:26;97781.94;;;10.54;100.00
31771;BME280;18343;50.152;8.182;2024-02-15T00:03:12;97779.41;;;10.52;100.00
31771;BME280;18343;50.152;8.182;2024-02-15T00:05:57;97788.13;;;10.54;100.00
31771;BME280;18343;50.152;8.182;2024-02-15T00:08:43;97790.66;;;10.56;100.00
31771;BME280;18343;50.152;8.182;2024-02-15T00:11:28;97777.38;;;10.54;100.00
31771;BME280;18343;50.152;8.182;2024-02-15T00:14:13;97776.06;;;10.50;100.00
31771;BME280;18343;50.152;8.182;2024-02-15T00:16:58;97771.25;;;10.45;100.00
31771;BME280;18343;50.152;8.182;2024-02-15T00:19:43;97778.00;;;10.41;100.00
31771;BME280;18343;50.152;8.182;2024-02-15T00:22:28;97772.38;;;10.36;100.00
31771;BME280;18343;50.152;8.182;2024-02-15T00:25:13;97778.28;;;10.32;100.00
31771;BME280;18343;50.152;8.182;2024-02-15T00:27:57;97773.94;;;10.31;100.00
31771;BME280;18343;50.152;8.182;2024-02-15T00:30:41;97777.16;;;10.26;100.00
31771;BME280;18343;50.152;8.182;2024-02-15T00:33:26;97774.81;;;10.23;100.00
31771;BME280;18343;50.152;8.182;2024-02-15T00:36:12;97779.53;;;10.21;100.00
31771;BME280;18343;50.152;8.182;2024-02-15T00:38:56;97767.78;;;10.22;100.00
31771;BME280;18343;50.152;8.182;2024-02-15T00:41:42;97775.00;;;10.22;100.00
31771;BME280;18343;50.152;8.182;2024-02-15T00:44:27;97780.38;;;10.22;100.00
31771;BME280;18343;50.152;8.182;2024-02-15T00:47:11;97773.34;;;10.21;100.00
31771;BME280;18343;50.152;8.182;2024-02-15T00:49:56;97778.72;;;10.21;100.00
31771;BME280;18343;50.152;8.182;2024-02-15T00:52:42;97780.38;;;10.22;100.00
31771;BME280;18343;50.152;8.182;2024-02-15T00:55:26;97783.25;;;10.20;100.00
31771;BME280;18343;50.152;8.182;2024-02-15T00:58:11;97777.50;;;10.23;100.00
31771;BME280;18343;50.152;8.182;2024-02-15T01:00:55;97782.88;;;10.23;100.00
31771;BME280;18343;50.152;8.182;2024-02-15T01:03:41;97780.84;;;10.25;100.00
31771;BME280;18343;50.152;8.182;2024-02-15T01:06:26;97778.66;;;10.29;100.00
31771;BME280;18343;50.152;8.182;2024-02-15T01:09:12;97782.63;;;10.33;100.00
31771;BME280;18343;50.152;8.182;2024-02-15T01:11:57;97788.94;;;10.40;100.00
31771;BME280;18343;50.152;8.182;2024-02-15T01:14:41;97779.84;;;10.41;100.00
31771;BME280;18343;50.152;8.182;2024-02-15T01:17:26;97777.81;;;10.43;100.00
31771;BME280;18343;50.152;8.182;2024-02-15T01:20:11;97773.94;;;10.45;100.00
31771;BME280;18343;50.152;8.182;2024-02-15T01:22:56;97778.75;;;10.50;100.00
31771;BME280;18343;50.152;8.182;2024-02-15T01:25:42;97775.53;;;10.55;100.00
31771;BME280;18343;50.152;8.182;2024-02-15T01:28:26;97773.03;;;10.53;100.00
31771;BME280;18343;50.152;8.182;2024-02-15T01:31:11;97767.00;;;10.51;100.00
31771;BME280;18343;50.152;8.182;2024-02-15T01:33:55;97772.19;;;10.52;100.00
31771;BME280;18343;50.152;8.182;2024-02-15T01:36:40;97773.84;;;10.54;100.00
31771;BME280;18343;50.152;8.182;2024-02-15T01:39:25;97773.03;;;10.53;100.00
31771;BME280;18343;50.152;8.182;2024-02-15T01:42:10;97767.16;;;10.49;100.00
31771;BME280;18343;50.152;8.182;2024-02-15T01:44:55;97764.66;;;10.48;100.00
31771;BME280;18343;50.152;8.182;2024-02-15T01:47:40;97775.41;;;10.48;100.00
31771;BME280;18343;50.152;8.182;2024-02-15T01:50:25;97769.88;;;10.49;100.00
31771;BME280;18343;50.152;8.182;2024-02-15T01:53:11;97771.91;;;10.47;100.00
31771;BME280;18343;50.152;8.182;2024-02-15T01:55:57;97768.19;;;10.48;100.00
31771;BME280;18343;50.152;8.182;2024-02-15T01:58:45;97771.53;;;10.50;100.00
31771;BME280;18343;50.152;8.182;2024-02-15T02:01:30;97775.53;;;10.55;100.00
31771;BME280;18343;50.152;8.182;2024-02-15T02:04:15;97765.97;;;10.52;100.00
31771;BME280;18343;50.152;8.182;2024-02-15T02:07:00;97766.81;;;10.52;100.00
31771;BME280;18343;50.152;8.182;2024-02-15T02:09:46;97770.34;;;10.53;100.00
31771;BME280;18343;50.152;8.182;2024-02-15T02:12:31;97770.69;;;10.50;100.00
31771;BME280;18343;50.152;8.182;2024-02-15T02:15:17;97769.88;;;10.49;100.00
31771;BME280;18343;50.152;8.182;2024-02-15T02:18:03;97766.81;;;10.52;100.00
31771;BME280;18343;50.152;8.182;2024-02-15T02:20:48;97758.75;;;10.52;100.00
31771;BME280;18343;50.152;8.182;2024-02-15T02:23:32;97771.34;;;10.52;100.00
31771;BME280;18343;50.152;8.182;2024-02-15T02:26:39;97762.16;;;10.46;100.00
31771;BME280;18343;50.152;8.182;2024-02-15T02:29:27;97763.47;;;10.50;100.00
31771;BME280;18343;50.152;8.182;2024-02-15T02:32:12;97757.91;;;10.52;100.00
31771;BME280;18343;50.152;8.182;2024-02-15T02:34:57;97757.72;;;10.54;100.00
31771;BME280;18343;50.152;8.182;2024-02-15T02:37:42;97759.56;;;10.53;100.00
31771;BME280;18343;50.152;8.182;2024-02-15T02:40:27;97761.44;;;10.52;100.00
31771;BME280;18343;50.152;8.182;2024-02-15T02:43:12;97760.22;;;10.55;100.00
31771;BME280;18343;50.152;8.182;2024-02-15T02:45:57;97768.47;;;10.54;100.00
31771;BME280;18343;50.152;8.182;2024-02-15T02:48:41;97762.72;;;10.57;100.00
31771;BME280;18343;50.152;8.182;2024-02-15T02:51:26;97763.56;;;10.57;100.00
31771;BME280;18343;50.152;8.182;2024-02-15T02:54:11;97757.53;;;10.55;100.00
31771;BME280;18343;50.152;8.182;2024-02-15T02:56:55;97761.06;;;10.56;100.00
31771;BME280;18343;50.152;8.182;2024-02-15T02:59:41;97764.22;;;10.59;100.00
31771;BME280;18343;50.152;8.182;2024-02-15T03:02:26;97758.28;;;10.64;100.00
31771;BME280;18343;50.152;8.182;2024-02-15T03:05:11;97760.41;;;10.68;100.00
31771;BME280;18343;50.152;8.182;2024-02-15T03:07:55;97751.13;;;10.71;100.00
31771;BME280;18343;50.152;8.182;2024-02-15T03:10:40;97754.28;;;10.74;100.00
31771;BME280;18343;50.152;8.182;2024-02-15T03:13:25;97750.22;;;10.78;100.00
31771;BME280;18343;50.152;8.182;2024-02-15T03:16:11;97744.81;;;10.78;100.00
31771;BME280;18343;50.152;8.182;2024-02-15T03:18:55;97748.34;;;10.79;100.00
31771;BME280;18343;50.152;8.182;2024-02-15T03:21:40;97742.31;;;10.77;100.00
31771;BME280;18343;50.152;8.182;2024-02-15T03:24:25;97744.00;;;10.78;100.00
31771;BME280;18343;50.152;8.182;2024-02-15T03:27:09;97748.16;;;10.80;100.00
31771;BME280;18343;50.152;8.182;2024-02-15T03:29:54;97744.66;;;10.80;100.00
31771;BME280;18343;50.152;8.182;2024-02-15T03:33:00;97742.13;;;10.78;100.00
31771;BME280;18343;50.152;8.182;2024-02-15T03:35:45;97740.75;;;10.82;100.00
31771;BME280;18343;50.152;8.182;2024-02-15T03:38:29;97738.72;;;10.84;100.00
31771;BME280;18343;50.152;8.182;2024-02-15T03:41:14;97742.22;;;10.85;100.00
31771;BME280;18343;50.152;8.182;2024-02-15T03:43:59;97738.72;;;10.84;100.00
31771;BME280;18343;50.152;8.182;2024-02-15T03:46:43;97739.53;;;10.85;100.00
31771;BME280;18343;50.152;8.182;2024-02-15T03:49:29;97731.66;;;10.83;100.00
31771;BME280;18343;50.152;8.182;2024-02-15T03:52:13;97743.25;;;10.84;100.00
31771;BME280;18343;50.152;8.182;2024-02-15T03:54:58;97742.41;;;10.83;100.00
31771;BME280;18343;50.152;8.182;2024-02-15T03:57:43;97744.94;;;10.85;100.00
31771;BME280;18343;50.152;8.182;2024-02-15T04:00:27;97752.16;;;10.84;100.00
31771;BME280;18343;50.152;8.182;2024-02-15T04:03:12;97753.19;;;10.83;100.00
31771;BME280;18343;50.152;8.182;2024-02-15T04:05:58;97751.31;;;10.84;100.00
31771;BME280;18343;50.152;8.182;2024-02-15T04:08:43;97750.03;;;10.80;100.00
31771;BME280;18343;50.152;8.182;2024-02-15T04:11:28;97747.97;;;10.82;100.00
31771;BME280;18343;50.152;8.182;2024-02-15T04:14:13;97749.66;;;10.83;100.00
31771;BME280;18343;50.152;8.182;2024-02-15T04:16:57;97743.25;;;10.84;100.00
31771;BME280;18343;50.152;8.182;2024-02-15T04:19:43;97747.63;;;10.85;100.00
31771;BME280;18343;50.152;8.182;2024-02-15T04:22:29;97746.59;;;10.86;100.00
31771;BME280;18343;50.152;8.182;2024-02-15T04:25:14;97755.69;;;10.85;100.00
31771;BME280;18343;50.152;8.182;2024-02-15T04:27:58;97744.09;;;10.84;100.00
31771;BME280;18343;50.152;8.182;2024-02-15T04:30:43;97736.19;;;10.83;100.00
31771;BME280;18343;50.152;8.182;2024-02-15T04:33:28;97736.19;;;10.83;100.00
31771;BME280;18343;50.152;8.182;2024-02-15T04:36:12;97733.13;;;10.86;100.00
31771;BME280;18343;50.152;8.182;2024-02-15T04:38:58;97726.94;;;10.85;100.00
31771;BME280;18343;50.152;8.182;2024-02-15T04:41:43;97735.84;;;10.86;100.00
31771;BME280;18343;50.152;8.182;2024-02-15T04:44:28;97728.59;;;10.87;100.00
31771;BME280;18343;50.152;8.182;2024-02-15T04:47:12;97727.75;;;10.86;100.00
31771;BME280;18343;50.152;8.182;2024-02-15T04:49:57;97722.56;;;10.84;100.00
31771;BME280;18343;50.152;8.182;2024-02-15T04:52:41;97726.47;;;10.82;100.00
31771;BME280;18343;50.152;8.182;2024-02-15T04:55:27;97728.31;;;10.81;100.00
31771;BME280;18343;50.152;8.182;2024-02-15T04:58:12;97716.63;;;10.74;100.00
31771;BME280;18343;50.152;8.182;2024-02-15T05:00:56;97721.16;;;10.74;100.00
31771;BME280;18343;50.152;8.182;2024-02-15T05:03:41;97713.94;;;10.74;100.00
31771;BME280;18343;50.152;8.182;2024-02-15T05:06:26;97720.91;;;10.69;100.00
31771;BME280;18343;50.152;8.182;2024-02-15T05:09:11;97718.19;;;10.69;100.00
31771;BME280;18343;50.152;8.182;2024-02-15T05:11:59;97711.81;;;10.70;100.00
31771;BME280;18343;50.152;8.182;2024-02-15T05:14:44;97707.84;;;10.66;100.00
31771;BME280;18343;50.152;8.182;2024-02-15T05:17:28;97711.38;;;10.66;100.00
31771;BME280;18343;50.152;8.182;2024-02-15T05:20:13;97713.00;;;10.67;100.00
31771;BME280;18343;50.152;8.182;2024-02-15T05:22:57;97716.34;;;10.69;100.00
31771;BME280;18343;50.152;8.182;2024-02-15T05:25:42;97721.91;;;10.68;100.00
31771;BME280;18343;50.152;8.182;2024-02-15T05:28:28;97724.22;;;10.71;100.00
31771;BME280;18343;50.152;8.182;2024-02-15T05:31:13;97722.38;;;10.71;100.00
31771;BME280;18343;50.152;8.182;2024-02-15T05:33:58;97728.13;;;10.68;100.00
31771;BME280;18343;50.152;8.182;2024-02-15T05:36:42;97726.28;;;10.69;100.00
31771;BME280;18343;50.152;8.182;2024-02-15T05:39:26;97733.69;;;10.67;100.00
31771;BME280;18343;50.152;8.182;2024-02-15T05:42:11;97733.50;;;10.68;100.00
31771;BME280;18343;50.152;8.182;2024-02-15T05:45:14;97724.34;;;10.63;100.00
31771;BME280;18343;50.152;8.182;2024-02-15T05:47:59;97722.31;;;10.65;100.00
31771;BME280;18343;50.152;8.182;2024-02-15T05:51:05;97725.19;;;10.63;100.00
31771;BME280;18343;50.152;8.182;2024-02-15T05:53:50;97722.75;;;10.68;100.00
31771;BME280;18343;50.152;8.182;2024-02-15T05:56:35;97719.03;;;10.69;100.00
31771;BME280;18343;50.152;8.182;2024-02-15T05:59:20;97716.16;;;10.71;100.00
31771;BME280;18343;50.152;8.182;2024-02-15T06:02:06;97708.94;;;10.71;100.00
31771;BME280;18343;50.152;8.182;2024-02-15T06:04:50;97693.44;;;10.73;100.00
31771;BME280;18343;50.152;8.182;2024-02-15T06:07:35;97689.91;;;10.73;100.00
31771;BME280;18343;50.152;8.182;2024-02-15T06:10:20;97699.38;;;10.69;100.00
31771;BME280;18343;50.152;8.182;2024-02-15T06:13:04;97698.53;;;10.68;100.00
31771;BME280;18343;50.152;8.182;2024-02-15T06:15:49;97701.16;;;10.62;100.00
31771;BME280;18343;50.152;8.182;2024-02-15T06:18:35;97699.50;;;10.61;100.00
31771;BME280;18343;50.152;8.182;2024-02-15T06:21:20;97708.31;;;10.55;100.00
31771;BME280;18343;50.152;8.182;2024-02-15T06:24:05;97707.66;;;10.52;100.00
31771;BME280;18343;50.152;8.182;2024-02-15T06:26:49;97697.91;;;10.51;100.00
31771;BME280;18343;50.152;8.182;2024-02-15T06:29:36;97691.22;;;10.47;100.00
31771;BME280;18343;50.152;8.182;2024-02-15T06:32:21;97705.88;;;10.45;100.00
31771;BME280;18343;50.152;8.182;2024-02-15T06:35:07;97703.75;;;10.40;100.00
31771;BME280;18343;50.152;8.182;2024-02-15T06:37:53;97697.53;;;10.40;100.00
31771;BME280;18343;50.152;8.182;2024-02-15T06:40:39;97698.75;;;10.37;100.00
31771;BME280;18343;50.152;8.182;2024-02-15T06:43:24;97698.75;;;10.37;100.00
31771;BME280;18343;50.152;8.182;2024-02-15T06:46:09;97691.97;;;10.27;100.00
31771;BME280;18343;50.152;8.182;2024-02-15T06:48:53;97700.88;;;10.27;100.00
31771;BME280;18343;50.152;8.182;2024-02-15T06:54:39;97708.50;;;10.38;100.00
31771;BME280;18343;50.152;8.182;2024-02-15T06:57:24;97710.59;;;10.43;100.00
31771;BME280;18343;50.152;8.182;2024-02-15T07:00:11;97715.44;;;10.33;100.00
31771;BME280;18343;50.152;8.182;2024-02-15T07:02:55;97715.31;;;10.41;100.00
31771;BME280;18343;50.152;8.182;2024-02-15T07:05:42;97711.63;;;10.42;100.00
31771;BME280;18343;50.152;8.182;2024-02-15T07:08:28;97711.63;;;10.42;100.00
31771;BME280;18343;50.152;8.182;2024-02-15T07:11:13;97716.44;;;10.46;100.00
31771;BME280;18343;50.152;8.182;2024-02-15T07:13:58;97719.13;;;10.46;100.00
31771;BME280;18343;50.152;8.182;2024-02-15T07:16:48;97719.97;;;10.47;100.00
31771;BME280;18343;50.152;8.182;2024-02-15T07:19:33;97719.13;;;10.46;100.00
31771;BME280;18343;50.152;8.182;2024-02-15T07:22:17;97718.59;;;10.51;100.00
31771;BME280;18343;50.152;8.182;2024-02-15T07:25:04;97714.88;;;10.52;100.00
31771;BME280;18343;50.152;8.182;2024-02-15T07:27:49;97717.19;;;10.55;100.00
31771;BME280;18343;50.152;8.182;2024-02-15T07:30:34;97714.16;;;10.58;100.00
31771;BME280;18343;50.152;8.182;2024-02-15T07:33:19;97715.44;;;10.62;100.00
31771;BME280;18343;50.152;8.182;2024-02-15T07:36:04;97717.94;;;10.64;100.00
31771;BME280;18343;50.152;8.182;2024-02-15T07:38:49;97716.75;;;10.66;100.00
31771;BME280;18343;50.152;8.182;2024-02-15T07:41:36;97715.69;;;10.67;100.00
31771;BME280;18343;50.152;8.182;2024-02-15T07:44:21;97721.72;;;10.69;100.00
31771;BME280;18343;50.152;8.182;2024-02-15T07:47:07;97724.03;;;10.72;100.00
31771;BME280;18343;50.152;8.182;2024-02-15T07:49:52;97723.41;;;10.70;100.00
31771;BME280;18343;50.152;8.182;2024-02-15T07:52:36;97727.56;;;10.73;100.00
31771;BME280;18343;50.152;8.182;2024-02-15T07:55:21;97724.22;;;10.71;100.00
31771;BME280;18343;50.152;8.182;2024-02-15T07:58:10;97731.75;;;10.75;100.00
31771;BME280;18343;50.152;8.182;2024-02-15T08:00:54;97734.06;;;10.78;100.00
31771;BME280;18343;50.152;8.182;2024-02-15T08:03:39;97732.69;;;10.82;100.00
31771;BME280;18343;50.152;8.182;2024-02-15T08:06:24;97727.84;;;10.78;100.00
31771;BME280;18343;50.152;8.182;2024-02-15T08:09:08;97722.66;;;10.76;100.00
31771;BME280;18343;50.152;8.182;2024-02-15T08:11:53;97728.88;;;10.77;100.00
31771;BME280;18343;50.152;8.182;2024-02-15T08:14:38;97731.56;;;10.77;100.00
31771;BME280;18343;50.152;8.182;2024-02-15T08:17:23;97730.81;;;10.83;100.00
31771;BME280;18343;50.152;8.182;2024-02-15T08:20:09;97727.13;;;10.84;100.00
31771;BME280;18343;50.152;8.182;2024-02-15T08:22:57;97723.41;;;10.85;100.00
31771;BME280;18343;50.152;8.182;2024-02-15T08:25:42;97726.47;;;10.82;100.00
31771;BME280;18343;50.152;8.182;2024-02-15T08:28:26;97724.41;;;10.84;100.00
31771;BME280;18343;50.152;8.182;2024-02-15T08:31:12;97730.25;;;10.88;100.00
31771;BME280;18343;50.152;8.182;2024-02-15T08:33:57;97724.94;;;10.94;100.00
31771;BME280;18343;50.152;8.182;2024-02-15T08:36:41;97724.56;;;10.97;100.00
31771;BME280;18343;50.152;8.182;2024-02-15T08:39:26;97724.56;;;10.97;100.00
31771;BME280;18343;50.152;8.182;2024-02-15T08:42:10;97716.69;;;10.96;100.00
31771;BME280;18343;50.152;8.182;2024-02-15T08:44:55;97716.97;;;11.01;100.00
31771;BME280;18343;50.152;8.182;2024-02-15T08:47:42;97716.13;;;11.00;100.00
31771;BME280;18343;50.152;8.182;2024-02-15T08:50:27;97719.66;;;11.01;100.00
31771;BME280;18343;50.152;8.182;2024-02-15T08:53:11;97716.97;;;11.01;100.00
31771;BME280;18343;50.152;8.182;2024-02-15T08:55:56;97723.19;;;11.01;100.00
31771;BME280;18343;50.152;8.182;2024-02-15T08:58:41;97724.38;;;10.99;100.00
31771;BME280;18343;50.152;8.182;2024-02-15T09:01:26;97724.28;;;11.07;100.00
31771;BME280;18343;50.152;8.182;2024-02-15T09:04:12;97725.97;;;11.08;100.00
31771;BME280;18343;50.152;8.182;2024-02-15T09:06:56;97721.22;;;11.10;100.00
31771;BME280;18343;50.152;8.182;2024-02-15T09:09:41;97719.94;;;11.06;100.00
31771;BME280;18343;50.152;8.182;2024-02-15T09:12:25;97721.03;;;11.11;100.00
31771;BME280;18343;50.152;8.182;2024-02-15T09:15:13;97713.22;;;11.16;100.00
31771;BME280;18343;50.152;8.182;2024-02-15T09:17:58;97710.78;;;11.22;100.00
31771;BME280;18343;50.152;8.182;2024-02-15T09:20:48;97715.22;;;11.29;100.00
31771;BME280;18343;50.152;8.182;2024-02-15T09:23:35;97715.97;;;11.23;100.00
31771;BME280;18343;50.152;8.182;2024-02-15T09:26:20;97712.72;;;11.28;100.00
31771;BME280;18343;50.152;8.182;2024-02-15T09:29:04;97712.53;;;11.29;100.00
31771;BME280;18343;50.152;8.182;2024-02-15T09:31:49;97714.00;;;11.32;100.00
31771;BME280;18343;50.152;8.182;2024-02-15T09:34:34;97717.06;;;11.29;100.00
31771;BME280;18343;50.152;8.182;2024-02-15T09:37:20;97709.47;;;11.32;100.00
31771;BME280;18343;50.152;8.182;2024-02-15T09:40:08;97709.09;;;11.35;100.00
31771;BME280;18343;50.152;8.182;2024-02-15T09:42:53;97706.84;;;11.39;100.00
31771;BME280;18343;50.152;8.182;2024-02-15T09:45:37;97703.00;;;11.48;100.00
31771;BME280;18343;50.152;8.182;2024-02-15T09:48:25;97703.69;;;11.57;100.00
31771;BME280;18343;50.152;8.182;2024-02-15T09:51:11;97704.78;;;11.62;100.00
31771;BME280;18343;50.152;8.182;2024-02-15T09:53:57;97712.94;;;11.69;100.00
31771;BME280;18343;50.152;8.182;2024-02-15T09:56:42;97705.69;;;11.69;100.00
31771;BME280;18343;50.152;8.182;2024-02-15T09:59:27;97701.97;;;11.70;100.00
31771;BME280;18343;50.152;8.182;2024-02-15T10:02:12;97704.69;;;11.70;100.00
31771;BME280;18343;50.152;8.182;2024-02-15T10:04:58;97698.66;;;11.68;100.00
31771;BME280;18343;50.152;8.182;2024-02-15T10:07:44;97703.00;;;11.69;100.00
31771;BME280;18343;50.152;8.182;2024-02-15T10:10:30;97697.44;;;11.71;100.00
31771;BME280;18343;50.152;8.182;2024-02-15T10:13:16;97702.38;;;11.67;100.00
31771;BME280;18343;50.152;8.182;2024-02-15T10:16:16;97693.63;;;11.65;100.00
31771;BME280;18343;50.152;8.182;2024-02-15T10:19:09;97693.25;;;11.68;100.00
31771;BME280;18343;50.152;8.182;2024-02-15T10:21:55;97697.56;;;11.63;100.00
31771;BME280;18343;50.152;8.182;2024-02-15T10:24:49;97704.41;;;11.65;100.00
31771;BME280;18343;50.152;8.182;2024-02-15T10:27:35;97703.59;;;11.65;100.00
31771;BME280;18343;50.152;8.182;2024-02-15T10:30:21;97697.31;;;11.79;100.00
31771;BME280;18343;50.152;8.182;2024-02-15T10:33:06;97699.09;;;11.72;100.00
31771;BME280;18343;50.152;8.182;2024-02-15T10:36:05;97678.56;;;11.71;100.00
31771;BME280;18343;50.152;8.182;2024-02-15T10:38:50;97683.19;;;11.77;100.00
31771;BME280;18343;50.152;8.182;2024-02-15T10:41:35;97682.41;;;11.62;100.00
31771;BME280;18343;50.152;8.182;2024-02-15T10:44:23;97671.56;;;11.76;100.00
31771;BME280;18343;50.152;8.182;2024-02-15T10:47:08;97668.94;;;11.83;100.00
31771;BME280;18343;50.152;8.182;2024-02-15T10:49:52;97659.59;;;11.79;100.00
31771;BME280;18343;50.152;8.182;2024-02-15T10:52:48;97654.63;;;11.82;100.00
31771;BME280;18343;50.152;8.182;2024-02-15T10:55:40;97657.13;;;11.84;100.00
31771;BME280;18343;50.152;8.182;2024-02-15T10:58:27;97661.50;;;11.85;100.00
31771;BME280;18343;50.152;8.182;2024-02-15T11:01:18;97656.88;;;11.79;100.00
31771;BME280;18343;50.152;8.182;2024-02-15T11:04:07;97665.03;;;11.85;100.00
31771;BME280;18343;50.152;8.182;2024-02-15T11:06:55;97654.31;;;11.92;100.00
31771;BME280;18343;50.152;8.182;2024-02-15T11:09:40;97661.03;;;12.03;100.00
31771;BME280;18343;50.152;8.182;2024-02-15T11:12:25;97648.84;;;12.13;100.00
31771;BME280;18343;50.152;8.182;2024-02-15T11:15:10;97648.97;;;12.27;100.00
31771;BME280;18343;50.152;8.182;2024-02-15T11:17:56;97649.22;;;12.38;100.00
31771;BME280;18343;50.152;8.182;2024-02-15T11:20:47;97637.47;;;12.52;100.00
31771;BME280;18343;50.152;8.182;2024-02-15T11:23:31;97625.47;;;12.62;100.00
31771;BME280;18343;50.152;8.182;2024-02-15T11:26:44;97632.72;;;12.61;100.00
31771;BME280;18343;50.152;8.182;2024-02-15T11:29:48;97621.16;;;12.74;100.00
31771;BME280;18343;50.152;8.182;2024-02-15T11:32:37;97620.59;;;12.85;100.00
31771;BME280;18343;50.152;8.182;2024-02-15T11:35:24;97612.53;;;12.98;100.00
31771;BME280;18343;50.152;8.182;2024-02-15T11:38:09;97620.63;;;12.98;100.00
31771;BME280;18343;50.152;8.182;2024-02-15T11:41:04;97615.22;;;12.98;100.00
31771;BME280;18343;50.152;8.182;2024-02-15T11:43:51;97612.97;;;13.08;100.00
31771;BME280;18343;50.152;8.182;2024-02-15T11:46:36;97604.88;;;13.08;100.00
31771;BME280;18343;50.152;8.182;2024-02-15T11:49:21;97605.06;;;13.13;100.00
31771;BME280;18343;50.152;8.182;2024-02-15T11:52:10;97610.47;;;13.13;100.00
31771;BME280;18343;50.152;8.182;2024-02-15T11:55:05;97604.69;;;13.16;100.00
31771;BME280;18343;50.152;8.182;2024-02-15T11:57:56;97596.38;;;13.11;100.00
31771;BME280;18343;50.152;8.182;2024-02-15T12:00:41;97593.22;;;13.14;100.00
31771;BME280;18343;50.152;8.182;2024-02-15T12:03:28;97590.75;;;13.13;100.00
31771;BME280;18343;50.152;8.182;2024-02-15T12:06:17;97586.22;;;13.20;100.00
31771;BME280;18343;50.152;8.182;2024-02-15T12:09:03;97593.09;;;13.23;100.00
31771;BME280;18343;50.152;8.182;2024-02-15T12:11:57;97595.38;;;13.26;100.00
31771;BME280;18343;50.152;8.182;2024-02-15T12:14:42;97594.03;;;12.95;100.00
31771;BME280;18343;50.152;8.182;2024-02-15T12:17:26;97589.69;;;13.14;100.00
31771;BME280;18343;50.152;8.182;2024-02-15T12:20:11;97594.06;;;13.15;100.00
31771;BME280;18343;50.152;8.182;2024-02-15T12:22:56;97587.47;;;13.17;100.00
31771;BME280;18343;50.152;8.182;2024-02-15T12:25:42;97576.88;;;13.23;100.00
31771;BME280;18343;50.152;8.182;2024-02-15T12:28:26;97586.88;;;13.29;100.00
31771;BME280;18343;50.152;8.182;2024-02-15T12:31:12;97585.19;;;13.28;100.00
31771;BME280;18343;50.152;8.182;2024-02-15T12:34:00;97575.44;;;13.27;100.00
31771;BME280;18343;50.152;8.182;2024-02-15T12:36:45;97582.91;;;13.25;100.00
31771;BME280;18343;50.152;8.182;2024-02-15T12:39:30;97582.09;;;13.31;100.00
31771;BME280;18343;50.152;8.182;2024-02-15T12:42:16;97570.88;;;13.27;100.00
31771;BME280;18343;50.152;8.182;2024-02-15T12:45:01;97569.41;;;13.25;100.00
31771;BME280;18343;50.152;8.182;2024-02-15T12:47:45;97569.00;;;13.28;100.00
31771;BME280;18343;50.152;8.182;2024-02-15T12:50:30;97566.09;;;13.29;100.00
31771;BME280;18343;50.152;8.182;2024-02-15T12:53:21;97575.00;;;13.23;100.00
31771;BME280;18343;50.152;8.182;2024-02-15T12:56:06;97571.69;;;13.21;100.00
31771;BME280;18343;50.152;8.182;2024-02-15T12:58:52;97570.03;;;13.27;100.00
31771;BME280;18343;50.152;8.182;2024-02-15T13:01:36;97568.59;;;13.31;100.00
31771;BME280;18343;50.152;8.182;2024-02-15T13:04:24;97568.59;;;13.37;100.00
31771;BME280;18343;50.152;8.182;2024-02-15T13:07:09;97561.94;;;13.40;100.00
31771;BME280;18343;50.152;8.182;2024-02-15T13:09:53;97546.78;;;13.39;100.00
31771;BME280;18343;50.152;8.182;2024-02-15T13:12:38;97555.28;;;13.42;100.00
31771;BME280;18343;50.152;8.182;2024-02-15T13:15:24;97552.16;;;13.45;100.00
31771;BME280;18343;50.152;8.182;2024-02-15T13:18:09;97553.41;;;13.49;100.00
31771;BME280;18343;50.152;8.182;2024-02-15T13:20:53;97547.81;;;13.44;100.00
31771;BME280;18343;50.152;8.182;2024-02-15T13:23:38;97549.69;;;13.50;100.00
31771;BME280;18343;50.152;8.182;2024-02-15T13:26:23;97544.69;;;13.54;100.00
31771;BME280;18343;50.152;8.182;2024-02-15T13:29:07;97541.34;;;13.52;100.00
31771;BME280;18343;50.152;8.182;2024-02-15T13:31:53;97535.13;;;13.32;100.00
31771;BME280;18343;50.152;8.182;2024-02-15T13:34:37;97533.47;;;13.37;100.00
31771;BME280;18343;50.152;8.182;2024-02-15T13:37:22;97537.03;;;13.38;100.00
31771;BME280;18343;50.152;8.182;2024-02-15T13:40:09;97523.72;;;13.36;100.00
31771;BME280;18343;50.152;8.182;2024-02-15T13:42:55;97518.72;;;13.40;100.00
31771;BME280;18343;50.152;8.182;2024-02-15T13:45:41;97521.41;;;13.46;100.00
31771;BME280;18343;50.152;8.182;2024-02-15T13:48:30;97523.91;;;13.48;100.00
31771;BME280;18343;50.152;8.182;2024-02-15T13:51:16;97514.56;;;13.50;100.00
31771;BME280;18343;50.152;8.182;2024-02-15T13:54:00;97509.97;;;13.51;100.00
31771;BME280;18343;50.152;8.182;2024-02-15T13:56:45;97497.31;;;13.51;100.00
31771;BME280;18343;50.152;8.182;2024-02-15T13:59:29;97495.22;;;13.47;100.00
31771;BME280;18343;50.152;8.182;2024-02-15T14:02:14;97483.16;;;13.49;100.00
31771;BME280;18343;50.152;8.182;2024-02-15T14:05:00;97482.53;;;13.41;100.00
31771;BME280;18343;50.152;8.182;2024-02-15T14:07:44;97479.63;;;13.42;100.00
31771;BME280;18343;50.152;8.182;2024-02-15T14:10:31;97475.06;;;13.43;100.00
31771;BME280;18343;50.152;8.182;2024-02-15T14:13:16;97480.09;;;13.39;100.00
31771;BME280;18343;50.152;8.182;2024-02-15T14:16:00;97470.53;;;13.30;100.00
31771;BME280;18343;50.152;8.182;2024-02-15T14:18:45;97475.50;;;13.20;100.00
31771;BME280;18343;50.152;8.182;2024-02-15T14:21:30;97469.91;;;13.28;100.00
31771;BME280;18343;50.152;8.182;2024-02-15T14:24:15;97460.97;;;13.34;100.00
31771;BME280;18343;50.152;8.182;2024-02-15T14:26:59;97446.84;;;13.39;100.00
31771;BME280;18343;50.152;8.182;2024-02-15T14:29:44;97439.97;;;13.36;100.00